createdAt,value
2019-05-10T00:00:50.105Z,99.99
2019-05-10T00:01:50.093Z,99.99
2019-05-10T00:02:50.066Z,99.99
2019-05-10T00:03:50.050Z,99.99
2019-05-10T00:04:50.043Z,99.99
2019-05-10T00:05:50.020Z,99.99
2019-05-10T00:06:50.009Z,99.99
2019-05-10T00:07:49.990Z,99.99
2019-05-10T00:08:49.972Z,99.99
2019-05-10T00:09:49.949Z,99.99
2019-05-10T00:10:49.992Z,99.99
2019-05-10T00:11:50.111Z,99.99
2019-05-10T00:12:49.899Z,99.99
2019-05-10T00:13:49.909Z,99.99
2019-05-10T00:14:49.866Z,99.99
2019-05-10T00:15:49.874Z,99.99
2019-05-10T00:16:49.842Z,99.99
2019-05-10T00:17:49.821Z,99.99
2019-05-10T00:18:49.821Z,99.99
2019-05-10T00:19:49.797Z,99.99
2019-05-10T00:20:49.761Z,99.99
2019-05-10T00:21:49.744Z,99.99
2019-05-10T00:22:49.727Z,99.99
2019-05-10T00:23:49.718Z,99.99
2019-05-10T00:25:03.176Z,99.99
2019-05-10T00:25:51.391Z,99.99
2019-05-10T00:26:49.666Z,99.99
2019-05-10T00:27:49.640Z,99.99
2019-05-10T00:28:49.628Z,99.99
2019-05-10T00:29:49.615Z,99.99
2019-05-10T00:30:49.596Z,99.99
2019-05-10T00:31:49.579Z,99.99
2019-05-10T00:32:49.563Z,99.99
2019-05-10T00:33:49.549Z,99.99
2019-05-10T00:34:49.525Z,99.99
2019-05-10T00:35:49.508Z,99.99
2019-05-10T00:36:49.494Z,99.99
2019-05-10T00:37:49.476Z,99.99
2019-05-10T00:38:49.458Z,99.99
2019-05-10T00:39:49.442Z,99.99
2019-05-10T00:40:49.434Z,99.99
2019-05-10T00:41:49.456Z,99.99
2019-05-10T00:42:49.392Z,99.99
2019-05-10T00:43:49.375Z,99.99
2019-05-10T00:44:49.352Z,99.99
2019-05-10T00:45:49.332Z,99.99
2019-05-10T00:46:49.318Z,99.99
2019-05-10T00:47:49.305Z,99.99
2019-05-10T00:48:49.284Z,99.99
2019-05-10T00:49:49.276Z,99.99
2019-05-10T00:50:49.249Z,99.99
2019-05-10T00:51:49.238Z,99.99
2019-05-10T00:52:49.217Z,99.99
2019-05-10T00:53:49.202Z,99.99
2019-05-10T00:54:49.190Z,99.99
2019-05-10T00:55:49.166Z,99.99
2019-05-10T00:56:49.150Z,99.99
2019-05-10T00:57:49.134Z,99.99
2019-05-10T00:58:49.123Z,99.99
2019-05-10T00:59:49.100Z,99.99
2019-05-10T01:00:49.083Z,99.99
2019-05-10T01:01:49.064Z,99.99
2019-05-10T01:02:49.049Z,99.99
2019-05-10T01:03:49.242Z,99.99
2019-05-10T01:04:49.013Z,99.99
2019-05-10T01:05:48.996Z,99.99
2019-05-10T01:06:48.981Z,99.99
2019-05-10T01:07:48.961Z,99.99
2019-05-10T01:08:48.946Z,99.99
2019-05-10T01:09:48.931Z,99.99
2019-05-10T01:10:48.910Z,99.99
2019-05-10T01:11:48.893Z,99.99
2019-05-10T01:12:48.885Z,99.99
2019-05-10T01:13:48.859Z,99.99
2019-05-10T01:14:48.865Z,99.99
2019-05-10T01:15:48.823Z,99.99
2019-05-10T01:16:48.806Z,99.99
2019-05-10T01:17:48.790Z,99.99
2019-05-10T01:18:48.773Z,99.99
2019-05-10T01:19:48.757Z,99.99
2019-05-10T01:20:48.738Z,99.99
2019-05-10T01:21:48.801Z,99.99
2019-05-10T01:22:48.702Z,99.99
2019-05-10T01:23:48.880Z,99.99
2019-05-10T01:24:48.671Z,99.99
2019-05-10T01:25:48.661Z,99.99
2019-05-10T01:26:49.373Z,99.99
2019-05-10T01:27:48.620Z,99.99
2019-05-10T01:28:48.602Z,99.99
2019-05-10T01:29:48.585Z,99.99
2019-05-10T01:30:48.568Z,99.99
2019-05-10T01:31:48.550Z,99.99
2019-05-10T01:32:48.686Z,99.99
2019-05-10T01:33:48.523Z,99.99
2019-05-10T01:34:48.499Z,99.99
2019-05-10T01:35:48.482Z,99.99
2019-05-10T01:36:48.462Z,99.99
2019-05-10T01:37:48.443Z,99.99
2019-05-10T01:38:48.432Z,99.99
2019-05-10T01:39:48.412Z,99.99
2019-05-10T01:40:48.399Z,99.99
2019-05-10T01:41:48.475Z,99.99
2019-05-10T01:42:48.374Z,99.99
2019-05-10T01:43:48.343Z,99.99
2019-05-10T01:44:48.327Z,99.99
2019-05-10T01:45:48.307Z,99.99
2019-05-10T01:46:48.615Z,99.99
2019-05-10T01:47:48.276Z,99.99
2019-05-10T01:48:48.259Z,99.99
2019-05-10T01:49:48.239Z,99.99
2019-05-10T01:50:48.225Z,99.99
2019-05-10T01:51:48.210Z,99.99
2019-05-10T01:52:48.181Z,99.99
2019-05-10T01:53:48.173Z,99.99
2019-05-10T01:54:48.158Z,99.99
2019-05-10T01:55:52.013Z,99.99
2019-05-10T01:56:48.120Z,99.99
2019-05-10T01:57:48.102Z,99.99
2019-05-10T01:58:48.086Z,99.99
2019-05-10T01:59:48.066Z,99.99
2019-05-10T02:00:48.052Z,99.99
2019-05-10T02:01:48.031Z,99.99
2019-05-10T02:02:48.014Z,99.99
2019-05-10T02:03:48.000Z,99.99
2019-05-10T02:04:47.983Z,99.99
2019-05-10T02:05:47.966Z,99.99
2019-05-10T02:06:47.948Z,99.99
2019-05-10T02:07:47.927Z,99.99
2019-05-10T02:08:47.921Z,99.99
2019-05-10T02:09:47.895Z,99.99
2019-05-10T02:10:47.877Z,99.99
2019-05-10T02:11:48.810Z,99.99
2019-05-10T02:12:47.843Z,99.99
2019-05-10T02:13:48.339Z,99.99
2019-05-10T02:14:47.812Z,99.99
2019-05-10T02:15:47.786Z,99.99
2019-05-10T02:16:47.771Z,99.99
2019-05-10T02:17:47.754Z,99.99
2019-05-10T02:18:47.739Z,99.99
2019-05-10T02:19:47.719Z,99.99
2019-05-10T02:20:47.705Z,99.99
2019-05-10T02:21:47.686Z,99.99
2019-05-10T02:22:47.691Z,99.99
2019-05-10T02:23:47.653Z,99.99
2019-05-10T02:24:47.905Z,99.99
2019-05-10T02:25:47.619Z,99.99
2019-05-10T02:26:47.600Z,99.99
2019-05-10T02:27:47.582Z,99.99
2019-05-10T02:28:47.562Z,99.99
2019-05-10T02:29:47.549Z,99.99
2019-05-10T02:30:47.532Z,99.99
2019-05-10T02:31:47.515Z,99.99
2019-05-10T02:32:47.513Z,99.99
2019-05-10T02:33:47.483Z,99.99
2019-05-10T02:34:47.463Z,99.99
2019-05-10T02:35:47.449Z,99.99
2019-05-10T02:36:47.438Z,99.99
2019-05-10T02:37:47.410Z,99.99
2019-05-10T02:38:47.396Z,99.99
2019-05-10T02:39:47.374Z,99.99
2019-05-10T02:40:47.364Z,99.99
2019-05-10T02:41:47.342Z,99.99
2019-05-10T02:42:47.323Z,99.99
2019-05-10T02:43:48.266Z,99.99
2019-05-10T02:44:47.291Z,99.99
2019-05-10T02:45:47.272Z,99.99
2019-05-10T02:46:47.254Z,99.99
2019-05-10T02:47:47.242Z,99.99
2019-05-10T02:48:48.131Z,99.99
2019-05-10T02:49:47.816Z,99.99
2019-05-10T02:50:47.189Z,99.99
2019-05-10T02:51:47.170Z,99.99
2019-05-10T02:52:47.150Z,99.99
2019-05-10T02:53:47.136Z,99.99
2019-05-10T02:54:47.126Z,99.99
2019-05-10T02:55:47.097Z,99.99
2019-05-10T02:56:47.080Z,99.99
2019-05-10T02:57:47.066Z,99.99
2019-05-10T02:58:47.064Z,99.99
2019-05-10T02:59:47.026Z,99.99
2019-05-10T03:00:47.007Z,99.99
2019-05-10T03:01:46.996Z,99.99
2019-05-10T03:02:46.986Z,99.99
2019-05-10T03:03:46.956Z,99.99
2019-05-10T03:04:46.941Z,99.99
2019-05-10T03:05:48.549Z,99.99
2019-05-10T03:06:46.908Z,99.99
2019-05-10T03:07:46.885Z,99.99
2019-05-10T03:08:46.873Z,99.99
2019-05-10T03:09:46.850Z,99.99
2019-05-10T03:10:46.854Z,99.99
2019-05-10T03:11:46.841Z,99.99
2019-05-10T03:12:46.803Z,99.99
2019-05-10T03:13:46.785Z,99.99
2019-05-10T03:14:46.766Z,99.99
2019-05-10T03:15:46.748Z,99.99
2019-05-10T03:16:46.746Z,99.99
2019-05-10T03:17:46.739Z,99.99
2019-05-10T03:18:46.702Z,99.99
2019-05-10T03:19:46.678Z,99.99
2019-05-10T03:20:46.666Z,99.99
2019-05-10T03:21:46.640Z,99.99
2019-05-10T03:22:47.414Z,99.99
2019-05-10T03:23:46.607Z,99.99
2019-05-10T03:24:46.611Z,99.99
2019-05-10T03:25:46.616Z,99.99
2019-05-10T03:26:50.634Z,99.99
2019-05-10T03:27:46.537Z,99.99
2019-05-10T03:28:46.558Z,99.99
2019-05-10T03:29:46.502Z,99.99
2019-05-10T03:30:46.670Z,99.99
2019-05-10T03:31:46.476Z,99.99
2019-05-10T03:32:46.480Z,99.99
2019-05-10T03:33:54.993Z,99.99
2019-05-10T03:34:46.417Z,99.99
2019-05-10T03:35:46.401Z,99.99
2019-05-10T03:36:46.425Z,99.99
2019-05-10T03:37:47.043Z,99.99
2019-05-10T03:38:46.351Z,99.99
2019-05-10T03:39:46.418Z,99.99
2019-05-10T03:40:46.311Z,99.99
2019-05-10T03:41:46.299Z,99.99
2019-05-10T03:42:46.273Z,99.99
2019-05-10T03:43:46.255Z,99.99
2019-05-10T03:44:46.249Z,99.99
2019-05-10T03:45:46.238Z,99.99
2019-05-10T03:46:46.215Z,99.99
2019-05-10T03:47:46.196Z,99.99
2019-05-10T03:48:46.163Z,99.99
2019-05-10T03:49:46.169Z,99.99
2019-05-10T03:50:46.148Z,99.99
2019-05-10T03:51:46.117Z,99.99
2019-05-10T03:52:46.099Z,99.99
2019-05-10T03:53:46.080Z,99.99
2019-05-10T03:54:46.099Z,99.99
2019-05-10T03:55:46.043Z,99.99
2019-05-10T03:56:46.034Z,99.99
2019-05-10T03:57:46.011Z,99.99
2019-05-10T03:58:45.995Z,99.99
2019-05-10T03:59:45.983Z,99.99
2019-05-10T04:00:45.995Z,99.99
2019-05-10T04:01:45.941Z,99.99
2019-05-10T04:02:45.922Z,99.99
2019-05-10T04:03:45.908Z,99.99
2019-05-10T04:04:45.894Z,99.99
2019-05-10T04:05:45.866Z,99.99
2019-05-10T04:06:45.855Z,99.99
2019-05-10T04:07:45.835Z,99.99
2019-05-10T04:08:45.817Z,99.99
2019-05-10T04:09:45.803Z,99.99
2019-05-10T04:10:45.780Z,99.99
2019-05-10T04:11:45.766Z,99.99
2019-05-10T04:12:45.746Z,99.99
2019-05-10T04:13:45.731Z,99.99
2019-05-10T04:14:45.711Z,99.99
2019-05-10T04:15:45.692Z,99.99
2019-05-10T04:16:45.681Z,99.99
2019-05-10T04:17:49.911Z,99.99
2019-05-10T04:18:45.641Z,99.99
2019-05-10T04:19:45.623Z,99.99
2019-05-10T04:20:45.602Z,99.99
2019-05-10T04:21:45.587Z,99.99
2019-05-10T04:22:45.573Z,99.99
2019-05-10T04:23:45.555Z,99.99
2019-05-10T04:24:45.534Z,99.99
2019-05-10T04:25:45.516Z,99.99
2019-05-10T04:26:45.499Z,99.99
2019-05-10T04:27:45.483Z,99.99
2019-05-10T04:28:45.467Z,99.99
2019-05-10T04:29:45.451Z,99.99
2019-05-10T04:30:45.432Z,99.99
2019-05-10T04:31:45.415Z,99.99
2019-05-10T04:32:45.388Z,99.99
2019-05-10T04:33:45.377Z,99.99
2019-05-10T04:34:45.363Z,99.99
2019-05-10T04:35:45.340Z,99.99
2019-05-10T04:36:45.325Z,99.99
2019-05-10T04:37:45.305Z,99.99
2019-05-10T04:38:45.292Z,99.99
2019-05-10T04:39:45.269Z,99.99
2019-05-10T04:40:45.254Z,99.99
2019-05-10T04:41:45.234Z,99.99
2019-05-10T04:42:45.236Z,99.99
2019-05-10T04:43:45.198Z,99.99
2019-05-10T04:44:45.179Z,99.99
2019-05-10T04:45:45.176Z,99.99
2019-05-10T04:46:45.149Z,99.99
2019-05-10T04:47:45.139Z,99.99
2019-05-10T04:48:45.111Z,99.99
2019-05-10T04:49:45.101Z,99.99
2019-05-10T04:50:48.843Z,99.99
2019-05-10T04:51:45.057Z,99.99
2019-05-10T04:52:45.041Z,99.99
2019-05-10T04:53:45.021Z,99.99
2019-05-10T04:54:45.006Z,99.99
2019-05-10T04:55:44.986Z,99.99
2019-05-10T04:56:44.976Z,99.99
2019-05-10T04:57:50.649Z,99.99
2019-05-10T04:58:44.972Z,99.99
2019-05-10T04:59:44.934Z,99.99
2019-05-10T05:00:44.899Z,99.99
2019-05-10T05:01:44.883Z,99.99
2019-05-10T05:02:44.865Z,99.99
2019-05-10T05:03:44.839Z,99.99
2019-05-10T05:04:44.830Z,99.99
2019-05-10T05:05:44.825Z,99.99
2019-05-10T05:06:44.794Z,99.99
2019-05-10T05:07:44.770Z,99.99
2019-05-10T05:08:44.776Z,99.99
2019-05-10T05:09:44.742Z,99.99
2019-05-10T05:10:44.725Z,99.99
2019-05-10T05:11:44.726Z,99.99
2019-05-10T05:12:44.690Z,99.99
2019-05-10T05:13:44.665Z,99.99
2019-05-10T05:14:44.652Z,99.99
2019-05-10T05:15:44.657Z,99.99
2019-05-10T05:16:44.619Z,99.99
2019-05-10T05:17:44.613Z,99.99
2019-05-10T05:18:44.590Z,99.99
2019-05-10T05:19:44.567Z,99.99
2019-05-10T05:20:44.548Z,99.99
2019-05-10T05:21:44.531Z,99.99
2019-05-10T05:22:44.513Z,99.99
2019-05-10T05:23:44.505Z,99.99
2019-05-10T05:24:44.478Z,99.99
2019-05-10T05:25:44.461Z,99.99
2019-05-10T05:26:44.444Z,99.99
2019-05-10T05:27:44.421Z,99.99
2019-05-10T05:28:44.402Z,99.99
2019-05-10T05:29:44.394Z,99.99
2019-05-10T05:30:44.378Z,99.99
2019-05-10T05:31:44.355Z,99.99
2019-05-10T05:32:45.798Z,99.99
2019-05-10T05:33:44.324Z,99.99
2019-05-10T05:34:44.308Z,99.99
2019-05-10T05:35:44.291Z,99.99
2019-05-10T05:36:44.281Z,99.99
2019-05-10T05:37:44.253Z,99.99
2019-05-10T05:38:47.301Z,99.99
2019-05-10T05:39:44.222Z,99.99
2019-05-10T05:40:44.209Z,99.99
2019-05-10T05:41:48.930Z,99.99
2019-05-10T05:42:44.177Z,99.99
2019-05-10T05:43:46.181Z,99.99
2019-05-10T05:44:44.178Z,99.99
2019-05-10T05:45:44.116Z,99.99
2019-05-10T05:46:44.104Z,99.99
2019-05-10T05:47:44.794Z,99.99
2019-05-10T05:48:44.069Z,99.99
2019-05-10T05:49:44.072Z,99.99
2019-05-10T05:50:44.041Z,99.99
2019-05-10T05:51:44.023Z,99.99
2019-05-10T05:52:44.003Z,99.99
2019-05-10T05:53:44.823Z,99.99
2019-05-10T05:54:43.969Z,99.99
2019-05-10T05:55:43.959Z,99.99
2019-05-10T05:56:44.463Z,99.99
2019-05-10T05:57:43.923Z,99.99
2019-05-10T05:58:45.175Z,99.99
2019-05-10T05:59:43.887Z,99.99
2019-05-10T06:00:44.977Z,99.99
2019-05-10T06:01:43.853Z,99.99
2019-05-10T06:02:45.035Z,99.99
2019-05-10T06:03:43.823Z,99.99
2019-05-10T06:04:46.161Z,99.99
2019-05-10T06:05:43.784Z,99.99
2019-05-10T06:06:43.773Z,99.99
2019-05-10T06:07:43.752Z,99.99
2019-05-10T06:08:43.737Z,99.99
2019-05-10T06:09:43.716Z,99.99
2019-05-10T06:10:44.164Z,99.99
2019-05-10T06:11:43.688Z,99.99
2019-05-10T06:12:44.435Z,99.99
2019-05-10T06:13:43.672Z,99.99
2019-05-10T06:14:49.926Z,99.99
2019-05-10T06:15:43.620Z,99.99
2019-05-10T06:16:44.920Z,99.99
2019-05-10T06:17:43.593Z,99.99
2019-05-10T06:18:47.208Z,99.99
2019-05-10T06:19:43.559Z,99.99
2019-05-10T06:20:44.562Z,99.99
2019-05-10T06:21:43.522Z,99.99
2019-05-10T06:22:56.160Z,99.99
2019-05-10T06:23:43.490Z,99.99
2019-05-10T06:24:46.747Z,99.99
2019-05-10T06:25:43.462Z,99.99
2019-05-10T06:26:43.440Z,99.99
2019-05-10T06:27:43.425Z,99.99
2019-05-10T06:28:58.543Z,99.99
2019-05-10T06:29:43.396Z,99.99
2019-05-10T06:30:43.395Z,99.99
2019-05-10T06:31:43.359Z,99.99
2019-05-10T06:32:43.369Z,99.99
2019-05-10T06:33:44.996Z,99.99
2019-05-10T06:34:43.315Z,99.99
2019-05-10T06:35:43.301Z,99.99
2019-05-10T06:36:43.283Z,99.99
2019-05-10T06:37:43.269Z,99.99
2019-05-10T06:38:43.245Z,99.99
2019-05-10T06:39:43.236Z,99.99
2019-05-10T06:40:47.344Z,99.99
2019-05-10T06:41:43.205Z,99.99
2019-05-10T06:42:43.193Z,99.99
2019-05-10T06:43:45.640Z,99.99
2019-05-10T06:44:43.158Z,99.99
2019-05-10T06:45:46.698Z,99.99
2019-05-10T06:46:43.132Z,99.99
2019-05-10T06:47:47.660Z,99.99
2019-05-10T06:48:43.094Z,99.99
2019-05-10T06:49:50.715Z,99.99
2019-05-10T06:50:43.065Z,99.99
2019-05-10T06:51:48.904Z,99.99
2019-05-10T06:52:43.036Z,99.99
2019-05-10T06:53:52.081Z,99.99
2019-05-10T06:54:43.005Z,99.99
2019-05-10T06:55:42.989Z,99.99
2019-05-10T06:56:42.973Z,99.99
2019-05-10T06:57:42.959Z,99.99
2019-05-10T06:58:42.942Z,99.99
2019-05-10T06:59:42.924Z,99.99
2019-05-10T07:00:45.068Z,99.99
2019-05-10T07:01:45.842Z,99.99
2019-05-10T07:02:42.882Z,99.99
2019-05-10T07:03:42.867Z,99.99
2019-05-10T07:04:42.853Z,99.99
2019-05-10T07:05:42.837Z,99.99
2019-05-10T07:06:42.824Z,99.99
2019-05-10T07:07:44.778Z,99.99
2019-05-10T07:08:45.597Z,99.99
2019-05-10T07:10:03.826Z,99.99
2019-05-10T07:10:42.757Z,99.99
2019-05-10T07:11:43.807Z,99.99
2019-05-10T07:12:42.857Z,99.99
2019-05-10T07:13:47.067Z,99.99
2019-05-10T07:14:45.935Z,99.99
2019-05-10T07:15:45.746Z,99.99
2019-05-10T07:16:42.671Z,99.99
2019-05-10T07:17:47.005Z,99.99
2019-05-10T07:18:42.644Z,99.99
2019-05-10T07:19:53.263Z,99.99
2019-05-10T07:20:43.386Z,99.99
2019-05-10T07:21:44.742Z,99.99
2019-05-10T07:22:42.583Z,99.99
2019-05-10T07:23:44.699Z,99.99
2019-05-10T07:24:42.553Z,99.76
2019-05-10T07:25:43.859Z,99.47
2019-05-10T07:26:42.525Z,99.57
2019-05-10T07:27:42.515Z,99.18
2019-05-10T07:28:42.491Z,99.66
2019-05-10T07:29:45.986Z,99.99
2019-05-10T07:30:42.466Z,99.99
2019-05-10T07:31:42.453Z,99.99
2019-05-10T07:32:42.435Z,99.99
2019-05-10T07:33:42.425Z,99.99
2019-05-10T07:34:42.430Z,99.99
2019-05-10T07:35:42.392Z,99.99
2019-05-10T07:36:42.381Z,99.99
2019-05-10T07:37:47.531Z,99.99
2019-05-10T07:38:42.349Z,99.99
2019-05-10T07:39:42.340Z,99.99
2019-05-10T07:40:42.321Z,99.99
2019-05-10T07:41:42.329Z,99.99
2019-05-10T07:42:45.482Z,99.99
2019-05-10T07:43:42.294Z,99.99
2019-05-10T07:44:46.743Z,99.99
2019-05-10T07:45:42.257Z,99.99
2019-05-10T07:46:46.585Z,99.99
2019-05-10T07:47:42.226Z,99.48
2019-05-10T07:48:47.341Z,99.19
2019-05-10T07:49:42.206Z,99.09
2019-05-10T07:50:48.969Z,99.66
2019-05-10T07:51:42.179Z,99.52
2019-05-10T07:52:45.509Z,97.90
2019-05-10T07:53:42.153Z,97.23
2019-05-10T07:54:45.276Z,96.27
2019-05-10T07:55:42.130Z,96.84
2019-05-10T07:56:45.567Z,96.47
2019-05-10T07:57:42.103Z,96.08
2019-05-10T07:58:43.157Z,97.23
2019-05-10T07:59:50.656Z,98.47
2019-05-10T08:00:44.479Z,98.28
2019-05-10T08:01:42.058Z,98.28
2019-05-10T08:02:44.420Z,98.61
2019-05-10T08:03:48.124Z,98.33
2019-05-10T08:04:42.015Z,97.47
2019-05-10T08:05:46.238Z,98.24
2019-05-10T08:06:47.457Z,98.04
2019-05-10T08:07:41.979Z,97.75
2019-05-10T08:08:41.965Z,97.95
2019-05-10T08:09:45.002Z,97.85
2019-05-10T08:10:41.940Z,97.18
2019-05-10T08:11:41.931Z,97.18
2019-05-10T08:12:45.596Z,98.33
2019-05-10T08:13:41.977Z,98.71
2019-05-10T08:14:44.602Z,99.10
2019-05-10T08:15:41.879Z,99.24
2019-05-10T08:16:41.866Z,98.95
2019-05-10T08:17:45.597Z,99.81
2019-05-10T08:18:42.473Z,98.71
2019-05-10T08:19:41.834Z,97.90
2019-05-10T08:20:50.435Z,97.71
2019-05-10T08:21:42.014Z,97.33
2019-05-10T08:22:45.944Z,97.33
2019-05-10T08:23:43.877Z,97.13
2019-05-10T08:24:46.525Z,96.75
2019-05-10T08:25:46.871Z,95.31
2019-05-10T08:26:42.567Z,94.74
2019-05-10T08:27:50.244Z,96.51
2019-05-10T08:28:44.685Z,96.22
2019-05-10T08:29:42.925Z,96.42
2019-05-10T08:30:51.170Z,95.94
2019-05-10T08:31:49.053Z,96.32
2019-05-10T08:32:42.473Z,96.66
2019-05-10T08:33:44.305Z,96.37
2019-05-10T08:34:51.851Z,96.47
2019-05-10T08:35:45.928Z,94.84
2019-05-10T08:36:45.848Z,94.07
2019-05-10T08:37:43.361Z,94.26
2019-05-10T08:38:46.144Z,94.74
2019-05-10T08:39:49.087Z,93.78
2019-05-10T08:40:42.761Z,93.69
2019-05-10T08:41:42.890Z,94.84
2019-05-10T08:42:48.127Z,95.12
2019-05-10T08:43:43.086Z,94.84
2019-05-10T08:44:42.708Z,94.79
2019-05-10T08:45:45.133Z,93.93
2019-05-10T08:46:44.295Z,92.58
2019-05-10T08:47:42.710Z,90.57
2019-05-10T08:48:46.715Z,89.13
2019-05-10T08:49:55.130Z,90.76
2019-05-10T08:50:53.314Z,91.05
2019-05-10T08:51:47.728Z,91.24
2019-05-10T08:52:42.362Z,92.39
2019-05-10T08:53:42.252Z,93.59
2019-05-10T08:54:42.319Z,93.06
2019-05-10T08:55:43.257Z,93.82
2019-05-10T08:56:44.035Z,93.06
2019-05-10T08:57:44.279Z,91.76
2019-05-10T08:58:42.199Z,89.55
2019-05-10T08:59:42.668Z,85.52
2019-05-10T09:00:54.366Z,86.00
2019-05-10T09:01:46.985Z,85.62
2019-05-10T09:02:42.752Z,84.66
2019-05-10T09:03:42.029Z,84.85
2019-05-10T09:04:45.875Z,83.22
2019-05-10T09:05:43.294Z,84.04
2019-05-10T09:06:42.034Z,82.60
2019-05-10T09:07:44.994Z,84.08
2019-05-10T09:08:43.171Z,85.19
2019-05-10T09:09:49.449Z,86.58
2019-05-10T09:10:42.167Z,87.35
2019-05-10T09:11:44.023Z,86.96
2019-05-10T09:12:50.593Z,87.29
2019-05-10T09:13:45.726Z,86.81
2019-05-10T09:14:42.595Z,86.81
2019-05-10T09:15:51.322Z,85.47
2019-05-10T09:16:45.665Z,84.51
2019-05-10T09:17:42.834Z,85.89
2019-05-10T09:18:46.212Z,86.38
2019-05-10T09:19:44.142Z,85.55
2019-05-10T09:20:42.175Z,87.09
2019-05-10T09:21:49.280Z,86.32
2019-05-10T09:22:42.445Z,85.69
2019-05-10T09:23:42.659Z,83.77
2019-05-10T09:24:48.581Z,80.88
2019-05-10T09:25:42.659Z,78.96
2019-05-10T09:26:41.828Z,79.69
2019-05-10T09:27:43.214Z,80.17
2019-05-10T09:28:42.137Z,81.71
2019-05-10T09:29:42.985Z,82.48
2019-05-10T09:30:55.757Z,78.53
2019-05-10T09:31:45.880Z,77.38
2019-05-10T09:32:43.180Z,75.75
2019-05-10T09:33:49.309Z,76.14
2019-05-10T09:34:42.667Z,75.81
2019-05-10T09:35:47.066Z,77.34
2019-05-10T09:36:44.791Z,79.36
2019-05-10T09:37:42.102Z,80.32
2019-05-10T09:38:43.308Z,81.28
2019-05-10T09:39:42.386Z,78.88
2019-05-10T09:40:50.519Z,78.59
2019-05-10T09:41:42.118Z,78.21
2019-05-10T09:42:43.629Z,75.81
2019-05-10T09:43:48.396Z,76.82
2019-05-10T09:44:40.967Z,78.27
2019-05-10T09:45:42.374Z,79.32
2019-05-10T09:46:42.206Z,80.09
2019-05-10T09:47:43.491Z,80.19
2019-05-10T09:48:44.702Z,81.15
2019-05-10T09:49:46.873Z,81.53
2019-05-10T09:50:46.542Z,81.05
2019-05-10T09:51:42.279Z,81.15
2019-05-10T09:52:40.891Z,81.34
2019-05-10T09:53:40.883Z,82.15
2019-05-10T09:54:40.872Z,81.67
2019-05-10T09:55:45.571Z,81.90
2019-05-10T09:56:44.366Z,81.04
2019-05-10T09:57:40.842Z,80.07
2019-05-10T09:58:40.831Z,79.98
2019-05-10T09:59:40.822Z,79.69
2019-05-10T10:00:40.816Z,80.07
2019-05-10T10:01:40.802Z,80.07
2019-05-10T10:02:40.985Z,79.88
2019-05-10T10:03:43.572Z,79.88
2019-05-10T10:04:40.781Z,80.07
2019-05-10T10:05:40.849Z,79.40
2019-05-10T10:06:41.944Z,79.60
2019-05-10T10:07:40.748Z,80.17
2019-05-10T10:08:43.533Z,80.46
2019-05-10T10:09:44.656Z,80.07
2019-05-10T10:10:40.719Z,79.98
2019-05-10T10:11:40.710Z,80.17
2019-05-10T10:12:40.710Z,80.07
2019-05-10T10:13:43.781Z,79.82
2019-05-10T10:14:43.315Z,78.90
2019-05-10T10:15:40.672Z,79.28
2019-05-10T10:16:40.664Z,79.13
2019-05-10T10:17:42.517Z,75.51
2019-05-10T10:18:40.647Z,75.13
2019-05-10T10:19:40.884Z,74.65
2019-05-10T10:20:43.718Z,74.41
2019-05-10T10:21:40.622Z,73.74
2019-05-10T10:22:43.370Z,72.74
2019-05-10T10:23:40.609Z,74.19
2019-05-10T10:24:41.208Z,75.73
2019-05-10T10:25:42.194Z,75.92
2019-05-10T10:26:40.600Z,76.15
2019-05-10T10:27:40.572Z,75.67
2019-05-10T10:28:41.111Z,75.19
2019-05-10T10:29:40.557Z,74.90
2019-05-10T10:30:40.549Z,75.28
2019-05-10T10:31:51.079Z,75.38
2019-05-10T10:32:40.532Z,75.42
2019-05-10T10:33:42.924Z,74.07
2019-05-10T10:34:43.029Z,75.51
2019-05-10T10:35:40.509Z,75.42
2019-05-10T10:36:43.956Z,72.56
2019-05-10T10:37:40.498Z,71.79
2019-05-10T10:38:45.295Z,71.50
2019-05-10T10:39:40.482Z,71.79
2019-05-10T10:40:44.753Z,72.75
2019-05-10T10:41:40.466Z,72.85
2019-05-10T10:42:40.457Z,71.41
2019-05-10T10:43:40.448Z,70.64
2019-05-10T10:44:40.442Z,73.24
2019-05-10T10:45:40.552Z,72.85
2019-05-10T10:46:40.429Z,71.50
2019-05-10T10:47:40.414Z,71.41
2019-05-10T10:48:43.618Z,69.96
2019-05-10T10:49:40.408Z,70.70
2019-05-10T10:50:44.152Z,72.43
2019-05-10T10:51:40.394Z,72.33
2019-05-10T10:52:40.383Z,71.31
2019-05-10T10:53:40.380Z,72.18
2019-05-10T10:54:40.378Z,73.05
2019-05-10T10:55:40.514Z,72.85
2019-05-10T10:56:40.355Z,72.47
2019-05-10T10:57:40.346Z,71.41
2019-05-10T10:58:40.534Z,70.50
2019-05-10T10:59:40.337Z,70.70
2019-05-10T11:00:40.325Z,71.91
2019-05-10T11:01:50.069Z,72.59
2019-05-10T11:02:41.665Z,73.46
2019-05-10T11:03:40.326Z,73.13
2019-05-10T11:04:46.386Z,74.48
2019-05-10T11:05:40.311Z,74.57
2019-05-10T11:06:40.278Z,74.63
2019-05-10T11:07:44.380Z,74.44
2019-05-10T11:08:41.275Z,72.58
2019-05-10T11:09:40.951Z,73.67
2019-05-10T11:10:40.473Z,74.34
2019-05-10T11:11:44.426Z,73.28
2019-05-10T11:12:41.275Z,73.42
2019-05-10T11:13:44.921Z,73.71
2019-05-10T11:14:45.171Z,74.13
2019-05-10T11:15:41.964Z,72.72
2019-05-10T11:16:41.277Z,72.43
2019-05-10T11:17:40.895Z,71.98
2019-05-10T11:18:41.874Z,72.18
2019-05-10T11:19:41.707Z,70.86
2019-05-10T11:20:42.053Z,71.83
2019-05-10T11:21:41.547Z,71.19
2019-05-10T11:22:41.999Z,70.61
2019-05-10T11:23:42.028Z,69.55
2019-05-10T11:24:40.137Z,69.20
2019-05-10T11:25:42.777Z,68.43
2019-05-10T11:26:40.697Z,69.58
2019-05-10T11:27:41.603Z,68.13
2019-05-10T11:28:44.023Z,68.13
2019-05-10T11:29:41.828Z,68.91
2019-05-10T11:30:40.101Z,69.62
2019-05-10T11:31:41.375Z,69.32
2019-05-10T11:32:41.862Z,69.07
2019-05-10T11:33:41.481Z,68.78
2019-05-10T11:34:40.083Z,67.43
2019-05-10T11:35:41.699Z,66.56
2019-05-10T11:36:40.389Z,66.69
2019-05-10T11:37:42.093Z,67.46
2019-05-10T11:38:41.996Z,65.95
2019-05-10T11:39:45.489Z,65.75
2019-05-10T11:40:41.895Z,64.98
2019-05-10T11:41:40.046Z,63.95
2019-05-10T11:42:45.985Z,64.62
2019-05-10T11:43:41.907Z,63.37
2019-05-10T11:44:41.412Z,61.92
2019-05-10T11:45:43.675Z,63.18
2019-05-10T11:46:41.632Z,60.57
2019-05-10T11:47:40.927Z,60.27
2019-05-10T11:48:42.198Z,62.37
2019-05-10T11:49:40.630Z,62.27
2019-05-10T11:50:41.056Z,62.08
2019-05-10T11:51:41.363Z,62.18
2019-05-10T11:52:40.720Z,63.73
2019-05-10T11:53:41.490Z,65.37
2019-05-10T11:54:41.654Z,65.37
2019-05-10T11:55:42.884Z,62.66
2019-05-10T11:56:41.029Z,62.47
2019-05-10T11:59:03.773Z,60.44
2019-05-10T11:59:41.573Z,60.63
2019-05-10T12:00:41.318Z,61.86
2019-05-10T12:01:41.851Z,62.24
2019-05-10T12:03:00.906Z,59.53
2019-05-10T12:03:42.433Z,58.67
2019-05-10T12:04:43.238Z,55.29
2019-05-10T12:05:42.452Z,56.73
2019-05-10T12:06:46.602Z,59.22
2019-05-10T12:07:44.970Z,59.60
2019-05-10T12:08:41.759Z,60.76
2019-05-10T12:09:42.458Z,61.34
2019-05-10T12:10:42.959Z,62.21
2019-05-10T12:11:51.243Z,60.99
2019-05-10T12:12:54.635Z,61.18
2019-05-10T12:13:39.971Z,59.15
2019-05-10T12:14:46.182Z,58.80
2019-05-10T12:15:42.852Z,59.08
2019-05-10T12:16:41.967Z,59.83
2019-05-10T12:17:46.265Z,58.76
2019-05-10T12:18:46.560Z,58.76
2019-05-10T12:19:47.771Z,59.25
2019-05-10T12:20:54.326Z,59.86
2019-05-10T12:21:39.956Z,60.24
2019-05-10T12:22:46.379Z,60.66
2019-05-10T12:23:47.318Z,61.08
2019-05-10T12:24:57.333Z,60.24
2019-05-10T12:25:53.120Z,58.33
2019-05-10T12:25:59.518Z,61.21
2019-05-10T12:27:45.262Z,59.52
2019-05-10T12:28:40.783Z,58.06
2019-05-10T12:29:39.948Z,58.36
2019-05-10T12:30:40.929Z,58.26
2019-05-10T12:31:41.466Z,59.03
2019-05-10T12:32:55.151Z,59.33
2019-05-10T12:33:42.990Z,58.45
2019-05-10T12:34:41.025Z,60.20
2019-05-10T12:35:46.572Z,60.17
2019-05-10T12:36:41.358Z,59.61
2019-05-10T12:37:46.518Z,57.45
2019-05-10T12:38:39.939Z,57.04
2019-05-10T12:39:39.935Z,58.65
2019-05-10T12:40:41.753Z,60.01
2019-05-10T12:41:45.096Z,58.24
2019-05-10T12:42:41.722Z,58.40
2019-05-10T12:43:40.909Z,60.34
2019-05-10T12:44:43.893Z,62.37
2019-05-10T12:45:41.851Z,63.18
2019-05-10T12:46:42.254Z,62.24
2019-05-10T12:47:41.409Z,60.91
2019-05-10T12:48:39.916Z,60.24
2019-05-10T12:49:40.945Z,58.91
2019-05-10T12:50:43.690Z,59.81
2019-05-10T12:51:40.893Z,57.78
2019-05-10T12:52:42.986Z,53.99
2019-05-10T12:53:44.422Z,53.22